Grand Centre, Canada
Current Conditions -  °F | °C
As of 7:00 PM on Tuesday 21 Oct 2014 (Local Time) from CYOD Reporting Station
Broken Clouds Broken Clouds  
Wind Chill: 52°   Ceiling: 13000
Heat Index: 52°   Visibility: 15mi
Dew Point: 39°   Wind: 5mph
Humidity: 62%   Direction: 270°W
Pressure: 29.64"   Gusts: NA
Location:  54.42°N, 110.2°W
Report Text: CYOD 220100Z 27004KT 15SM FEW100 BKN130 11/04 A2964 RMK AC1AC6SLP056
Loading
Personal Weather Stations






























Interactive Weather Map
Tropical Storm Tracking
New forecast layout! Learn more

10-Day Weather Forecast

Advertisements
Track Severe Weather on mobile